createdAt,value
2023-02-14T00:00:27.834Z,-1.77
2023-02-14T00:02:54.590Z,-1.87
2023-02-14T00:05:21.115Z,-1.83
2023-02-14T00:07:47.643Z,-1.83
2023-02-14T00:10:14.142Z,-1.89
2023-02-14T00:12:40.630Z,-1.91
2023-02-14T00:15:22.374Z,-1.87
2023-02-14T00:17:50.263Z,-1.86
2023-02-14T00:20:17.072Z,-1.80
2023-02-14T00:22:43.879Z,-1.83
2023-02-14T00:25:10.546Z,-1.92
2023-02-14T00:27:37.560Z,-1.94
2023-02-14T00:30:06.337Z,-2.02
2023-02-14T00:32:32.885Z,-2.04
2023-02-14T00:34:59.619Z,-2.02
2023-02-14T00:37:26.221Z,-1.94
2023-02-14T00:39:52.976Z,-1.89
2023-02-14T00:42:19.512Z,-1.94
2023-02-14T00:44:46.106Z,-1.93
2023-02-14T00:47:12.602Z,-1.95
2023-02-14T00:49:39.121Z,-2.00
2023-02-14T00:52:05.689Z,-1.95
2023-02-14T00:54:32.239Z,-2.00
2023-02-14T00:56:59.302Z,-1.93
2023-02-14T00:59:25.965Z,-1.97
2023-02-14T01:01:52.510Z,-1.98
2023-02-14T01:04:19.022Z,-2.00
2023-02-14T01:06:45.965Z,-1.96
2023-02-14T01:09:13.082Z,-2.02
2023-02-14T01:11:40.024Z,-1.91
2023-02-14T01:14:06.545Z,-1.96
2023-02-14T01:16:33.606Z,-1.97
2023-02-14T01:19:01.128Z,-2.02
2023-02-14T01:21:30.372Z,-2.05
2023-02-14T01:23:59.140Z,-2.06
2023-02-14T01:26:26.287Z,-2.05
2023-02-14T01:28:52.829Z,-2.03
2023-02-14T01:31:26.208Z,-1.92
2023-02-14T01:33:53.850Z,-1.97
2023-02-14T01:36:28.483Z,-2.01
2023-02-14T01:39:04.664Z,-2.12
2023-02-14T01:41:34.168Z,-2.19
2023-02-14T01:44:00.682Z,-2.18
2023-02-14T01:46:30.355Z,-2.13
2023-02-14T01:49:03.779Z,-2.10
2023-02-14T01:51:32.446Z,-2.10
2023-02-14T01:53:59.703Z,-2.14
2023-02-14T01:56:38.330Z,-2.08
2023-02-14T01:59:10.918Z,-2.06
2023-02-14T02:01:38.579Z,-2.07
2023-02-14T02:04:17.355Z,-2.10
2023-02-14T02:06:57.191Z,-2.13
2023-02-14T02:09:33.349Z,-2.09
2023-02-14T02:12:00.948Z,-2.10
2023-02-14T02:14:29.570Z,-2.16
2023-02-14T02:17:11.259Z,-2.14
2023-02-14T02:20:08.655Z,-2.15
2023-02-14T02:22:35.957Z,-2.24
2023-02-14T02:25:21.243Z,-2.19
2023-02-14T02:28:20.024Z,-2.14
2023-02-14T02:31:15.811Z,-2.16
2023-02-14T02:33:57.365Z,-2.19
2023-02-14T02:36:48.363Z,-2.21
2023-02-14T02:39:23.760Z,-2.20
2023-02-14T02:42:05.102Z,-2.25
2023-02-14T02:44:50.755Z,-2.28
2023-02-14T02:47:26.713Z,-2.09
2023-02-14T02:50:38.181Z,-2.10
2023-02-14T02:53:11.298Z,-2.14
2023-02-14T02:56:15.561Z,-2.08
2023-02-14T02:58:46.747Z,-2.12
2023-02-14T03:01:17.460Z,-2.22
2023-02-14T03:04:07.012Z,-2.24
2023-02-14T03:06:34.190Z,-2.26
2023-02-14T03:09:30.116Z,-2.27
2023-02-14T03:12:08.032Z,-2.35
2023-02-14T03:14:50.165Z,-2.27
2023-02-14T03:17:51.850Z,-2.30
2023-02-14T03:20:29.674Z,-2.29
2023-02-14T03:23:03.613Z,-2.34
2023-02-14T03:25:45.185Z,-2.31
2023-02-14T03:28:24.651Z,-2.29
2023-02-14T03:30:56.948Z,-2.26
2023-02-14T03:33:44.041Z,-2.30
2023-02-14T03:36:17.323Z,-2.24
2023-02-14T03:39:10.436Z,-2.19
2023-02-14T03:41:43.770Z,-2.22
2023-02-14T03:44:12.510Z,-2.28
2023-02-14T03:46:49.943Z,-2.23
2023-02-14T03:49:23.864Z,-2.32
2023-02-14T03:51:54.894Z,-2.33
2023-02-14T03:54:23.539Z,-2.31
2023-02-14T03:56:54.579Z,-2.24
2023-02-14T03:59:24.455Z,-2.27
2023-02-14T04:02:06.029Z,-2.26
2023-02-14T04:04:35.898Z,-2.19
2023-02-14T04:07:28.360Z,-2.23
2023-02-14T04:09:55.002Z,-2.25
2023-02-14T04:12:32.402Z,-2.17
2023-02-14T04:15:04.594Z,-2.10
2023-02-14T04:17:49.300Z,-2.04
2023-02-14T04:20:15.830Z,-2.15
2023-02-14T04:22:42.358Z,-2.18
2023-02-14T04:25:08.844Z,-2.17
2023-02-14T04:27:35.342Z,-2.14
2023-02-14T04:30:01.936Z,-2.11
2023-02-14T04:32:28.488Z,-2.08
2023-02-14T04:34:55.062Z,-2.07
2023-02-14T04:37:21.553Z,-2.16
2023-02-14T04:39:48.180Z,-2.11
2023-02-14T04:42:14.859Z,-2.10
2023-02-14T04:44:41.594Z,-2.07
2023-02-14T04:47:08.658Z,-2.10
2023-02-14T04:49:35.779Z,-2.19
2023-02-14T04:52:02.614Z,-2.20
2023-02-14T04:54:29.211Z,-2.26
2023-02-14T04:56:55.767Z,-2.30
2023-02-14T04:59:24.697Z,-2.33
2023-02-14T05:01:51.690Z,-2.31
2023-02-14T05:04:18.190Z,-2.32
2023-02-14T05:06:44.691Z,-2.32
2023-02-14T05:09:11.212Z,-2.35
2023-02-14T05:11:38.298Z,-2.35
2023-02-14T05:14:04.809Z,-2.39
2023-02-14T05:16:31.409Z,-2.40
2023-02-14T05:18:57.924Z,-2.34
2023-02-14T05:21:24.538Z,-2.24
2023-02-14T05:23:51.021Z,-2.18
2023-02-14T05:26:17.556Z,-2.23
2023-02-14T05:28:44.042Z,-2.18
2023-02-14T05:31:10.679Z,-2.24
2023-02-14T05:33:37.501Z,-2.28
2023-02-14T05:36:04.312Z,-2.20
2023-02-14T05:38:33.365Z,-2.31
2023-02-14T05:41:00.163Z,-2.23
2023-02-14T05:43:27.207Z,-2.31
2023-02-14T05:45:54.616Z,-2.27
2023-02-14T05:48:21.338Z,-2.26
2023-02-14T05:50:48.177Z,-2.26
2023-02-14T05:53:15.017Z,-2.30
2023-02-14T05:55:41.493Z,-2.23
2023-02-14T05:58:08.161Z,-2.19
2023-02-14T06:00:34.875Z,-2.19
2023-02-14T06:03:01.402Z,-2.32
2023-02-14T06:05:27.993Z,-2.35
2023-02-14T06:07:54.500Z,-2.34
2023-02-14T06:10:23.258Z,-2.27
2023-02-14T06:12:51.501Z,-2.26
2023-02-14T06:15:18.707Z,-2.21
2023-02-14T06:17:45.322Z,-2.31
2023-02-14T06:20:12.390Z,-2.30
2023-02-14T06:22:41.491Z,-2.33
2023-02-14T06:25:08.185Z,-2.36
2023-02-14T06:27:34.703Z,-2.33
2023-02-14T06:30:01.338Z,-2.38
2023-02-14T06:32:27.866Z,-2.42
2023-02-14T06:34:54.352Z,-2.43
2023-02-14T06:37:20.878Z,-2.41
2023-02-14T06:39:47.463Z,-2.34
2023-02-14T06:42:14.282Z,-2.36
2023-02-14T06:44:41.085Z,-2.24
2023-02-14T06:47:08.496Z,-2.19
2023-02-14T06:49:35.014Z,-2.16
2023-02-14T06:52:01.693Z,-2.18
2023-02-14T06:54:28.763Z,-2.13
2023-02-14T06:56:55.900Z,-2.06
2023-02-14T06:59:23.095Z,-2.12
2023-02-14T07:01:49.684Z,-2.20
2023-02-14T07:04:17.722Z,-2.25
2023-02-14T07:06:45.996Z,-2.18
2023-02-14T07:09:16.710Z,-2.05
2023-02-14T07:11:45.331Z,-2.07
2023-02-14T07:14:12.334Z,-2.01
2023-02-14T07:16:39.089Z,-1.97
2023-02-14T07:19:05.669Z,-1.93
2023-02-14T07:21:32.346Z,-1.87
2023-02-14T07:23:59.048Z,-1.84
2023-02-14T07:26:25.545Z,-1.78
2023-02-14T07:28:52.045Z,-1.83
2023-02-14T07:31:21.040Z,-1.73
2023-02-14T07:33:47.694Z,-1.70
2023-02-14T07:36:14.242Z,-1.61
2023-02-14T07:38:40.861Z,-1.63
2023-02-14T07:41:07.616Z,-1.62
2023-02-14T07:43:34.460Z,-1.55
2023-02-14T07:46:02.841Z,-1.46
2023-02-14T07:48:31.414Z,-1.32
2023-02-14T07:51:00.189Z,-1.23
2023-02-14T07:53:26.905Z,-1.11
2023-02-14T07:55:53.587Z,-0.99
2023-02-14T07:58:20.135Z,-0.90
2023-02-14T08:00:46.719Z,-0.79
2023-02-14T08:03:14.023Z,-0.66
2023-02-14T08:05:41.103Z,-0.51
2023-02-14T08:08:07.950Z,-0.37
2023-02-14T08:10:34.521Z,-0.30
2023-02-14T08:13:01.166Z,-0.15
2023-02-14T08:15:52.287Z,-0.06
2023-02-14T08:18:20.366Z,0.09
2023-02-14T08:20:49.675Z,0.24
2023-02-14T08:23:18.014Z,0.41
2023-02-14T08:25:44.596Z,0.49
2023-02-14T08:28:13.178Z,0.65
2023-02-14T08:30:39.657Z,0.78
2023-02-14T08:33:06.712Z,0.82
2023-02-14T08:35:33.443Z,0.96
2023-02-14T08:37:59.978Z,1.10
2023-02-14T08:40:26.779Z,1.25
2023-02-14T08:42:54.784Z,1.38
2023-02-14T08:45:21.855Z,1.51
2023-02-14T08:47:48.368Z,1.69
2023-02-14T08:50:17.487Z,1.85
2023-02-14T08:52:44.605Z,2.04
2023-02-14T08:55:13.350Z,2.19
2023-02-14T08:57:40.199Z,2.37
2023-02-14T09:00:07.814Z,2.59
2023-02-14T09:02:34.473Z,2.76
2023-02-14T09:05:01.094Z,2.95
2023-02-14T09:07:27.850Z,3.18
2023-02-14T09:09:54.374Z,3.33
2023-02-14T09:12:20.928Z,3.52
2023-02-14T09:14:47.423Z,3.69
2023-02-14T09:17:15.183Z,3.84
2023-02-14T09:19:42.304Z,4.02
2023-02-14T09:22:11.213Z,4.21
2023-02-14T09:24:39.676Z,4.43
2023-02-14T09:27:06.323Z,4.61
2023-02-14T09:29:33.629Z,4.78
2023-02-14T09:32:01.721Z,4.97
2023-02-14T09:34:47.754Z,5.17
2023-02-14T09:37:33.196Z,5.37
2023-02-14T09:39:59.713Z,5.53
2023-02-14T09:43:02.791Z,5.60
2023-02-14T09:45:32.260Z,5.46
2023-02-14T09:48:17.230Z,5.59
2023-02-14T09:50:48.891Z,5.67
2023-02-14T09:53:15.343Z,5.63
2023-02-14T09:56:50.378Z,5.76
2023-02-14T09:59:27.453Z,5.85
2023-02-14T10:02:28.729Z,5.89
2023-02-14T10:05:24.852Z,5.98
2023-02-14T10:08:27.593Z,6.20
2023-02-14T10:11:05.673Z,6.46
2023-02-14T10:13:47.152Z,6.68
2023-02-14T10:16:40.158Z,6.87
2023-02-14T10:19:48.849Z,7.09
2023-02-14T10:22:18.372Z,7.34
2023-02-14T10:24:52.944Z,7.57
2023-02-14T10:27:25.449Z,7.78
2023-02-14T10:29:52.173Z,8.01
2023-02-14T10:32:44.751Z,8.14
2023-02-14T10:35:35.849Z,8.32
2023-02-14T10:38:30.572Z,8.54
2023-02-14T10:41:38.808Z,8.82
2023-02-14T10:44:41.372Z,9.05
2023-02-14T10:47:31.462Z,9.21
2023-02-14T10:50:09.924Z,9.30
2023-02-14T10:53:04.710Z,9.48
2023-02-14T10:55:57.001Z,9.72
2023-02-14T10:58:26.690Z,9.92
2023-02-14T11:00:56.189Z,10.15
2023-02-14T11:03:23.874Z,10.32
2023-02-14T11:05:50.959Z,10.48
2023-02-14T11:08:32.052Z,10.65
2023-02-14T11:11:18.404Z,10.78
2023-02-14T11:13:46.045Z,10.93
2023-02-14T11:16:27.730Z,11.05
2023-02-14T11:19:08.154Z,11.10
2023-02-14T11:21:39.932Z,11.25
2023-02-14T11:24:31.413Z,11.39
2023-02-14T11:27:02.126Z,11.42
2023-02-14T11:29:36.224Z,11.52
2023-02-14T11:32:09.187Z,11.70
2023-02-14T11:34:52.492Z,11.81
2023-02-14T11:37:21.596Z,12.11
2023-02-14T11:39:49.034Z,12.31
2023-02-14T11:42:45.526Z,12.41
2023-02-14T11:45:40.198Z,12.53
2023-02-14T11:48:36.600Z,12.70
2023-02-14T11:51:10.755Z,12.73
2023-02-14T11:53:48.478Z,12.68
2023-02-14T11:56:17.548Z,12.87
2023-02-14T11:58:59.490Z,13.08
2023-02-14T12:01:29.963Z,13.01
2023-02-14T12:04:01.178Z,13.14
2023-02-14T12:06:31.362Z,13.29
2023-02-14T12:09:22.377Z,13.42
2023-02-14T12:11:59.631Z,13.50
2023-02-14T12:14:29.899Z,13.57
2023-02-14T12:17:04.684Z,13.58
2023-02-14T12:19:44.630Z,13.76
2023-02-14T12:22:18.892Z,13.69
2023-02-14T12:25:11.736Z,13.84
2023-02-14T12:28:01.460Z,14.01
2023-02-14T12:30:32.349Z,14.30
2023-02-14T12:33:00.230Z,14.47
2023-02-14T12:35:42.082Z,14.35
2023-02-14T12:38:17.400Z,14.31
2023-02-14T12:40:52.914Z,14.34
2023-02-14T12:43:47.941Z,14.27
2023-02-14T12:46:20.316Z,14.35
2023-02-14T12:49:12.445Z,14.50
2023-02-14T12:52:07.000Z,14.49
2023-02-14T12:54:48.394Z,14.47
2023-02-14T12:57:33.633Z,14.56
2023-02-14T13:00:18.686Z,14.48
2023-02-14T13:03:01.178Z,14.51
2023-02-14T13:05:53.311Z,14.53
2023-02-14T13:09:08.071Z,14.59
2023-02-14T13:11:59.052Z,14.65
2023-02-14T13:15:04.773Z,14.57
2023-02-14T13:18:10.818Z,14.62
2023-02-14T13:20:42.775Z,14.63
2023-02-14T13:23:19.032Z,14.67
2023-02-14T13:26:09.891Z,14.92
2023-02-14T13:28:38.396Z,14.96
2023-02-14T13:31:05.698Z,14.92
2023-02-14T13:33:43.467Z,14.97
2023-02-14T13:36:13.342Z,14.99
2023-02-14T13:38:46.933Z,15.10
2023-02-14T13:41:15.342Z,15.24
2023-02-14T13:43:46.688Z,15.18
2023-02-14T13:46:15.725Z,15.22
2023-02-14T13:48:54.646Z,15.13
2023-02-14T13:51:21.181Z,15.18
2023-02-14T13:53:49.153Z,15.31
2023-02-14T13:56:15.581Z,15.39
2023-02-14T13:58:52.215Z,15.39
2023-02-14T14:01:36.982Z,15.34
2023-02-14T14:04:24.012Z,15.34
2023-02-14T14:07:02.813Z,15.33
2023-02-14T14:09:41.575Z,15.24
2023-02-14T14:12:26.602Z,15.21
2023-02-14T14:15:05.655Z,15.13
2023-02-14T14:17:35.151Z,15.04
2023-02-14T14:20:04.496Z,14.94
2023-02-14T14:22:35.837Z,14.82
2023-02-14T14:25:09.044Z,14.75
2023-02-14T14:27:42.904Z,14.40
2023-02-14T14:30:21.093Z,14.15
2023-02-14T14:32:47.846Z,13.96
2023-02-14T14:35:18.746Z,13.77
2023-02-14T14:37:51.183Z,13.48
2023-02-14T14:40:29.586Z,13.16
2023-02-14T14:43:06.171Z,12.93
2023-02-14T14:45:33.002Z,12.68
2023-02-14T14:48:08.388Z,12.27
2023-02-14T14:50:36.363Z,12.05
2023-02-14T14:53:06.693Z,11.77
2023-02-14T14:55:36.201Z,11.63
2023-02-14T14:58:10.559Z,11.37
2023-02-14T15:00:42.206Z,11.47
2023-02-14T15:03:14.933Z,11.44
2023-02-14T15:05:45.220Z,11.15
2023-02-14T15:08:23.043Z,10.85
2023-02-14T15:10:54.497Z,10.68
2023-02-14T15:13:53.604Z,10.41
2023-02-14T15:16:29.825Z,10.12
2023-02-14T15:19:00.837Z,9.89
2023-02-14T15:21:28.060Z,9.71
2023-02-14T15:23:54.794Z,9.60
2023-02-14T15:26:31.606Z,9.53
2023-02-14T15:29:07.489Z,9.38
2023-02-14T15:31:40.591Z,9.30
2023-02-14T15:34:09.759Z,9.23
2023-02-14T15:36:36.693Z,9.09
2023-02-14T15:39:07.961Z,8.97
2023-02-14T15:41:34.492Z,8.91
2023-02-14T15:44:00.985Z,8.81
2023-02-14T15:46:36.752Z,8.72
2023-02-14T15:49:09.047Z,8.62
2023-02-14T15:51:37.018Z,8.45
2023-02-14T15:54:07.498Z,8.30
2023-02-14T15:56:42.165Z,8.21
2023-02-14T15:59:29.532Z,8.10
2023-02-14T16:02:27.730Z,7.92
2023-02-14T16:04:54.403Z,7.83
2023-02-14T16:07:27.217Z,7.74
2023-02-14T16:10:18.204Z,7.52
2023-02-14T16:12:57.202Z,7.40
2023-02-14T16:15:29.353Z,7.21
2023-02-14T16:17:56.368Z,7.11
2023-02-14T16:20:35.140Z,7.06
2023-02-14T16:23:23.079Z,6.96
2023-02-14T16:25:49.691Z,6.85
2023-02-14T16:28:16.555Z,6.73
2023-02-14T16:30:45.040Z,6.58
2023-02-14T16:33:35.037Z,6.40
2023-02-14T16:36:30.106Z,6.30
2023-02-14T16:38:57.099Z,6.17
2023-02-14T16:41:27.513Z,6.00
2023-02-14T16:43:55.878Z,5.89
2023-02-14T16:46:29.656Z,5.78
2023-02-14T16:48:57.146Z,5.69
2023-02-14T16:51:32.503Z,5.48
2023-02-14T16:54:02.791Z,5.32
2023-02-14T16:56:33.318Z,5.23
2023-02-14T16:59:00.072Z,5.07
2023-02-14T17:01:26.653Z,5.05
2023-02-14T17:03:53.290Z,4.92
2023-02-14T17:06:23.334Z,4.88
2023-02-14T17:08:52.262Z,4.80
2023-02-14T17:11:19.658Z,4.67
2023-02-14T17:13:47.629Z,4.62
2023-02-14T17:16:16.341Z,4.52
2023-02-14T17:18:48.624Z,4.42
2023-02-14T17:21:16.633Z,4.35
2023-02-14T17:23:43.306Z,4.32
2023-02-14T17:26:11.139Z,4.19
2023-02-14T17:28:37.721Z,4.06
2023-02-14T17:31:04.724Z,3.97
2023-02-14T17:33:32.868Z,3.89
2023-02-14T17:36:06.636Z,3.94
2023-02-14T17:38:35.822Z,3.83
2023-02-14T17:41:35.117Z,3.74
2023-02-14T17:44:01.932Z,3.60
2023-02-14T17:46:30.493Z,3.55
2023-02-14T17:48:57.943Z,3.47
2023-02-14T17:51:25.352Z,3.38
2023-02-14T17:53:51.858Z,3.31
2023-02-14T17:56:21.816Z,3.21
2023-02-14T17:58:50.644Z,3.21
2023-02-14T18:01:20.486Z,3.11
2023-02-14T18:03:47.723Z,3.10
2023-02-14T18:06:14.993Z,3.03
2023-02-14T18:08:46.208Z,3.01
2023-02-14T18:11:13.923Z,2.88
2023-02-14T18:13:40.418Z,2.73
2023-02-14T18:16:10.068Z,2.67
2023-02-14T18:18:37.494Z,2.73
2023-02-14T18:21:06.134Z,2.57
2023-02-14T18:23:33.297Z,2.49
2023-02-14T18:26:04.598Z,2.56
2023-02-14T18:28:32.070Z,2.55
2023-02-14T18:31:05.893Z,2.46
2023-02-14T18:33:33.246Z,2.41
2023-02-14T18:36:21.213Z,2.47
2023-02-14T18:38:48.830Z,2.32
2023-02-14T18:41:17.799Z,2.33
2023-02-14T18:43:45.056Z,2.27
2023-02-14T18:46:17.389Z,2.25
2023-02-14T18:48:44.667Z,2.15
2023-02-14T18:51:21.768Z,2.09
2023-02-14T18:53:50.844Z,2.10
2023-02-14T18:56:19.386Z,2.08
2023-02-14T18:58:48.602Z,2.12
2023-02-14T19:01:17.934Z,2.14
2023-02-14T19:03:45.058Z,2.08
2023-02-14T19:06:12.858Z,2.09
2023-02-14T19:08:40.615Z,2.01
2023-02-14T19:11:15.479Z,1.94
2023-02-14T19:13:51.540Z,1.91
2023-02-14T19:16:21.538Z,1.80
2023-02-14T19:18:49.962Z,1.66
2023-02-14T19:21:22.184Z,1.63
2023-02-14T19:23:49.595Z,1.55
2023-02-14T19:26:19.973Z,1.59
2023-02-14T19:28:48.286Z,1.59
2023-02-14T19:31:15.897Z,1.53
2023-02-14T19:33:44.836Z,1.57
2023-02-14T19:36:13.654Z,1.46
2023-02-14T19:38:41.851Z,1.47
2023-02-14T19:41:20.101Z,1.42
2023-02-14T19:43:47.713Z,1.38
2023-02-14T19:46:15.582Z,1.36
2023-02-14T19:48:42.544Z,1.38
2023-02-14T19:51:33.774Z,1.28
2023-02-14T19:54:01.755Z,1.18
2023-02-14T19:56:32.196Z,1.13
2023-02-14T19:58:59.043Z,1.11
2023-02-14T20:01:34.294Z,1.14
2023-02-14T20:04:01.111Z,1.16
2023-02-14T20:06:29.239Z,1.16
2023-02-14T20:08:57.959Z,1.17
2023-02-14T20:11:35.418Z,1.13
2023-02-14T20:14:13.016Z,1.16
2023-02-14T20:16:40.345Z,1.13
2023-02-14T20:19:12.056Z,1.17
2023-02-14T20:21:41.854Z,1.14
2023-02-14T20:24:10.458Z,1.03
2023-02-14T20:26:39.337Z,1.00
2023-02-14T20:29:07.347Z,0.92
2023-02-14T20:31:34.631Z,0.95
2023-02-14T20:34:02.537Z,0.94
2023-02-14T20:36:29.549Z,0.95
2023-02-14T20:39:02.140Z,0.81
2023-02-14T20:41:34.553Z,0.79
2023-02-14T20:44:22.511Z,0.82
2023-02-14T20:46:51.419Z,0.83
2023-02-14T20:49:21.537Z,0.86
2023-02-14T20:51:52.366Z,0.79
2023-02-14T20:54:21.790Z,0.77
2023-02-14T20:56:48.589Z,0.67
2023-02-14T20:59:15.085Z,0.64
2023-02-14T21:01:41.747Z,0.62
2023-02-14T21:04:08.386Z,0.61
2023-02-14T21:06:35.637Z,0.57
2023-02-14T21:09:03.778Z,0.57
2023-02-14T21:11:30.358Z,0.50
2023-02-14T21:13:59.987Z,0.46
2023-02-14T21:16:27.719Z,0.32
2023-02-14T21:18:58.847Z,0.29
2023-02-14T21:21:35.248Z,0.34
2023-02-14T21:24:05.181Z,0.22
2023-02-14T21:26:31.974Z,0.23
2023-02-14T21:28:58.594Z,0.20
2023-02-14T21:31:25.717Z,0.26
2023-02-14T21:33:55.134Z,0.26
2023-02-14T21:36:24.257Z,0.15
2023-02-14T21:38:51.349Z,0.18
2023-02-14T21:41:26.096Z,0.18
2023-02-14T21:43:56.188Z,0.11
2023-02-14T21:46:27.386Z,0.07
2023-02-14T21:49:13.895Z,0.17
2023-02-14T21:51:40.852Z,0.07
2023-02-14T21:54:08.541Z,-0.02
2023-02-14T21:56:36.710Z,-0.08
2023-02-14T21:59:03.671Z,-0.07
2023-02-14T22:01:35.437Z,-0.08
2023-02-14T22:04:02.761Z,-0.12
2023-02-14T22:06:29.353Z,-0.13
2023-02-14T22:09:01.499Z,-0.13
2023-02-14T22:11:29.384Z,-0.17
2023-02-14T22:13:56.434Z,-0.21
2023-02-14T22:16:24.550Z,-0.20
2023-02-14T22:18:51.638Z,-0.27
2023-02-14T22:21:23.390Z,-0.30
2023-02-14T22:23:50.231Z,-0.33
2023-02-14T22:26:28.381Z,-0.28
2023-02-14T22:28:59.010Z,-0.38
2023-02-14T22:31:27.936Z,-0.43
2023-02-14T22:33:54.956Z,-0.41
2023-02-14T22:36:21.609Z,-0.40
2023-02-14T22:38:48.128Z,-0.41
2023-02-14T22:41:17.596Z,-0.48
2023-02-14T22:43:44.981Z,-0.53
2023-02-14T22:46:12.616Z,-0.39
2023-02-14T22:48:39.806Z,-0.34
2023-02-14T22:51:07.370Z,-0.39
2023-02-14T22:53:34.207Z,-0.48
2023-02-14T22:56:16.077Z,-0.51
2023-02-14T22:58:42.723Z,-0.48
2023-02-14T23:01:17.011Z,-0.53
2023-02-14T23:03:44.960Z,-0.61
2023-02-14T23:06:12.498Z,-0.61
2023-02-14T23:08:40.639Z,-0.63
2023-02-14T23:11:13.214Z,-0.70
2023-02-14T23:13:58.134Z,-0.72
2023-02-14T23:16:43.691Z,-0.77
2023-02-14T23:19:32.701Z,-0.74
2023-02-14T23:22:12.464Z,-0.84
2023-02-14T23:24:39.301Z,-0.85
2023-02-14T23:27:06.714Z,-0.87
2023-02-14T23:29:33.663Z,-0.82
2023-02-14T23:32:00.200Z,-0.81
2023-02-14T23:34:29.651Z,-0.89
2023-02-14T23:36:56.143Z,-0.85
2023-02-14T23:39:22.809Z,-0.82
2023-02-14T23:41:49.689Z,-0.86
2023-02-14T23:44:21.801Z,-0.87
2023-02-14T23:46:51.814Z,-0.87
2023-02-14T23:49:19.030Z,-0.89
2023-02-14T23:51:47.411Z,-0.93
2023-02-14T23:54:14.840Z,-0.89
2023-02-14T23:56:41.408Z,-0.95
2023-02-14T23:59:08.518Z,-1.03
